createdAt,value
2018-03-18T00:00:51.877Z,58
2018-03-18T00:01:54.304Z,58
2018-03-18T00:02:56.726Z,58
2018-03-18T00:03:59.132Z,58
2018-03-18T00:05:01.547Z,58
2018-03-18T00:06:03.962Z,58
2018-03-18T00:07:06.380Z,59
2018-03-18T00:08:08.792Z,59
2018-03-18T00:09:11.203Z,59
2018-03-18T00:10:13.615Z,59
2018-03-18T00:11:16.048Z,59
2018-03-18T00:12:18.462Z,59
2018-03-18T00:13:21.255Z,59
2018-03-18T00:14:23.670Z,59
2018-03-18T00:15:26.374Z,59
2018-03-18T00:16:28.796Z,60
2018-03-18T00:17:31.210Z,59
2018-03-18T00:18:33.642Z,59
2018-03-18T00:19:36.073Z,59
2018-03-18T00:20:38.465Z,59
2018-03-18T00:21:41.172Z,59
2018-03-18T00:22:43.587Z,59
2018-03-18T00:23:45.996Z,60
2018-03-18T00:24:48.407Z,59
2018-03-18T00:25:50.820Z,59
2018-03-18T00:26:53.246Z,59
2018-03-18T00:27:55.947Z,59
2018-03-18T00:28:58.363Z,59
2018-03-18T00:30:00.783Z,59
2018-03-18T00:31:03.191Z,60
2018-03-18T00:32:05.597Z,60
2018-03-18T00:33:08.019Z,60
2018-03-18T00:34:10.424Z,60
2018-03-18T00:35:12.842Z,60
2018-03-18T00:36:15.266Z,60
2018-03-18T00:37:17.676Z,59
2018-03-18T00:38:20.383Z,59
2018-03-18T00:39:23.083Z,59
2018-03-18T00:40:25.497Z,59
2018-03-18T00:41:27.920Z,60
2018-03-18T00:42:30.632Z,60
2018-03-18T00:43:33.624Z,60
2018-03-18T00:44:36.306Z,61
2018-03-18T00:45:38.727Z,60
2018-03-18T00:46:41.150Z,60
2018-03-18T00:47:43.561Z,61
2018-03-18T00:48:46.275Z,60
2018-03-18T00:49:48.687Z,61
2018-03-18T00:50:51.095Z,60
2018-03-18T00:51:53.522Z,61
2018-03-18T00:52:55.934Z,60
2018-03-18T00:53:58.340Z,60
2018-03-18T00:55:01.065Z,60
2018-03-18T00:56:03.776Z,60
2018-03-18T00:57:06.465Z,61
2018-03-18T00:58:09.778Z,60
2018-03-18T00:59:12.184Z,60
2018-03-18T01:00:14.595Z,60
2018-03-18T01:01:17.066Z,60
2018-03-18T01:02:19.440Z,61
2018-03-18T01:03:21.857Z,61
2018-03-18T01:04:24.287Z,61
2018-03-18T01:05:26.992Z,61
2018-03-18T01:06:29.423Z,60
2018-03-18T01:07:31.841Z,61
2018-03-18T01:08:34.242Z,61
2018-03-18T01:09:36.663Z,61
2018-03-18T01:10:39.081Z,60
2018-03-18T01:11:41.497Z,60
2018-03-18T01:12:43.910Z,59
2018-03-18T01:13:46.319Z,59
2018-03-18T01:14:48.743Z,59
2018-03-18T01:15:51.153Z,59
2018-03-18T01:16:53.565Z,59
2018-03-18T01:17:55.995Z,59
2018-03-18T01:18:58.406Z,59
2018-03-18T01:20:01.096Z,59
2018-03-18T01:21:03.514Z,59
2018-03-18T01:22:06.211Z,59
2018-03-18T01:23:08.627Z,59
2018-03-18T01:24:11.048Z,59
2018-03-18T01:25:13.449Z,59
2018-03-18T01:26:15.878Z,59
2018-03-18T01:27:18.296Z,60
2018-03-18T01:28:20.698Z,60
2018-03-18T01:29:23.107Z,60
2018-03-18T01:30:25.519Z,60
2018-03-18T01:31:27.935Z,59
2018-03-18T01:32:30.368Z,59
2018-03-18T01:33:32.785Z,59
2018-03-18T01:34:35.187Z,59
2018-03-18T01:35:37.609Z,59
2018-03-18T01:36:40.319Z,59
2018-03-18T01:37:42.727Z,59
2018-03-18T01:38:45.452Z,59
2018-03-18T01:39:47.856Z,59
2018-03-18T01:40:50.550Z,59
2018-03-18T01:41:52.984Z,59
2018-03-18T01:42:55.398Z,59
2018-03-18T01:43:57.812Z,59
2018-03-18T01:45:00.221Z,58
2018-03-18T01:46:02.646Z,58
2018-03-18T01:47:05.068Z,58
2018-03-18T01:48:07.486Z,58
2018-03-18T01:49:09.910Z,58
2018-03-18T01:50:12.319Z,57
2018-03-18T01:51:15.023Z,58
2018-03-18T01:52:17.450Z,57
2018-03-18T01:53:20.139Z,57
2018-03-18T01:54:22.553Z,57
2018-03-18T01:55:24.974Z,57
2018-03-18T01:56:27.383Z,57
2018-03-18T01:57:29.792Z,57
2018-03-18T01:58:32.211Z,57
2018-03-18T01:59:34.625Z,57
2018-03-18T02:00:37.045Z,57
2018-03-18T02:01:39.469Z,57
2018-03-18T02:02:41.883Z,57
2018-03-18T02:03:44.297Z,56
2018-03-18T02:04:46.994Z,56
2018-03-18T02:05:49.417Z,56
2018-03-18T02:06:51.836Z,57
2018-03-18T02:07:54.247Z,56
2018-03-18T02:08:56.661Z,57
2018-03-18T02:09:59.360Z,57
2018-03-18T02:11:01.784Z,57
2018-03-18T02:12:04.497Z,56
2018-03-18T02:13:07.216Z,56
2018-03-18T02:14:09.631Z,56
2018-03-18T02:15:12.053Z,56
2018-03-18T02:16:14.456Z,56
2018-03-18T02:17:17.162Z,56
2018-03-18T02:18:19.577Z,56
2018-03-18T02:19:21.996Z,55
2018-03-18T02:20:24.409Z,55
2018-03-18T02:21:26.830Z,56
2018-03-18T02:22:29.238Z,56
2018-03-18T02:23:31.655Z,56
2018-03-18T02:24:34.070Z,55
2018-03-18T02:25:36.483Z,55
2018-03-18T02:26:38.888Z,55
2018-03-18T02:27:41.593Z,55
2018-03-18T02:28:44.008Z,55
2018-03-18T02:29:46.432Z,55
2018-03-18T02:30:48.845Z,55
2018-03-18T02:31:51.254Z,55
2018-03-18T02:32:53.667Z,56
2018-03-18T02:33:56.676Z,56
2018-03-18T02:34:59.083Z,56
2018-03-18T02:36:01.792Z,56
2018-03-18T02:37:04.210Z,56
2018-03-18T02:38:06.635Z,57
2018-03-18T02:39:09.042Z,56
2018-03-18T02:40:11.758Z,56
2018-03-18T02:41:14.164Z,56
2018-03-18T02:42:16.569Z,56
2018-03-18T02:43:18.987Z,56
2018-03-18T02:44:21.402Z,56
2018-03-18T02:45:23.813Z,56
2018-03-18T02:46:26.236Z,56
2018-03-18T02:47:28.645Z,56
2018-03-18T02:48:31.063Z,56
2018-03-18T02:49:33.488Z,56
2018-03-18T02:50:36.186Z,56
2018-03-18T02:51:38.887Z,56
2018-03-18T02:52:41.306Z,57
2018-03-18T02:53:43.725Z,56
2018-03-18T02:54:46.139Z,56
2018-03-18T02:55:48.555Z,56
2018-03-18T02:56:50.957Z,56
2018-03-18T02:57:53.378Z,56
2018-03-18T02:58:55.795Z,56
2018-03-18T02:59:58.208Z,56
2018-03-18T03:01:00.617Z,56
2018-03-18T03:02:03.332Z,56
2018-03-18T03:03:05.750Z,56
2018-03-18T03:04:08.171Z,56
2018-03-18T03:05:10.578Z,56
2018-03-18T03:06:12.998Z,56
2018-03-18T03:07:15.709Z,55
2018-03-18T03:08:18.129Z,55
2018-03-18T03:09:20.545Z,55
2018-03-18T03:10:22.961Z,55
2018-03-18T03:11:25.371Z,56
2018-03-18T03:12:27.788Z,56
2018-03-18T03:13:30.192Z,55
2018-03-18T03:14:32.615Z,55
2018-03-18T03:15:35.324Z,55
2018-03-18T03:16:38.017Z,56
2018-03-18T03:17:40.432Z,55
2018-03-18T03:18:42.849Z,55
2018-03-18T03:19:45.255Z,55
2018-03-18T03:20:47.667Z,55
2018-03-18T03:21:50.075Z,55
2018-03-18T03:22:52.488Z,55
2018-03-18T03:23:54.912Z,55
2018-03-18T03:24:57.326Z,55
2018-03-18T03:25:59.737Z,55
2018-03-18T03:27:02.152Z,55
2018-03-18T03:28:04.842Z,55
2018-03-18T03:29:07.271Z,55
2018-03-18T03:30:09.685Z,55
2018-03-18T03:31:12.094Z,56
2018-03-18T03:32:14.828Z,56
2018-03-18T03:33:17.239Z,55
2018-03-18T03:34:19.662Z,55
2018-03-18T03:35:22.083Z,55
2018-03-18T03:36:24.482Z,55
2018-03-18T03:37:26.898Z,55
2018-03-18T03:38:29.317Z,55
2018-03-18T03:39:31.724Z,55
2018-03-18T03:40:34.134Z,55
2018-03-18T03:41:36.552Z,55
2018-03-18T03:42:38.969Z,55
2018-03-18T03:43:41.675Z,56
2018-03-18T03:44:44.092Z,56
2018-03-18T03:45:46.503Z,56
2018-03-18T03:46:48.919Z,56
2018-03-18T03:47:51.320Z,56
2018-03-18T03:48:53.739Z,56
2018-03-18T03:49:56.455Z,56
2018-03-18T03:50:58.870Z,56
2018-03-18T03:52:01.573Z,56
2018-03-18T03:53:03.989Z,56
2018-03-18T03:54:06.718Z,56
2018-03-18T03:55:09.429Z,56
2018-03-18T03:56:12.119Z,56
2018-03-18T03:57:14.543Z,55
2018-03-18T03:58:16.956Z,56
2018-03-18T03:59:19.369Z,56
2018-03-18T04:00:21.802Z,56
2018-03-18T04:01:24.205Z,56
2018-03-18T04:02:26.603Z,56
2018-03-18T04:03:29.032Z,56
2018-03-18T04:04:31.442Z,56
2018-03-18T04:05:34.143Z,56
2018-03-18T04:06:36.557Z,56
2018-03-18T04:07:38.966Z,55
2018-03-18T04:08:41.377Z,55
2018-03-18T04:09:43.800Z,56
2018-03-18T04:10:46.203Z,55
2018-03-18T04:11:48.910Z,56
2018-03-18T04:12:51.328Z,56
2018-03-18T04:13:53.748Z,56
2018-03-18T04:14:56.167Z,55
2018-03-18T04:15:58.576Z,56
2018-03-18T04:17:01.014Z,55
2018-03-18T04:18:03.993Z,55
2018-03-18T04:19:06.414Z,55
2018-03-18T04:20:08.831Z,55
2018-03-18T04:21:11.239Z,55
2018-03-18T04:22:13.652Z,55
2018-03-18T04:23:16.067Z,56
2018-03-18T04:24:18.485Z,55
2018-03-18T04:25:20.899Z,56
2018-03-18T04:26:23.324Z,56
2018-03-18T04:27:26.018Z,56
2018-03-18T04:28:28.435Z,56
2018-03-18T04:29:30.850Z,56
2018-03-18T04:30:33.254Z,56
2018-03-18T04:31:35.669Z,56
2018-03-18T04:32:38.151Z,56
2018-03-18T04:33:40.503Z,56
2018-03-18T04:34:42.908Z,56
2018-03-18T04:35:45.614Z,56
2018-03-18T04:36:48.316Z,56
2018-03-18T04:37:50.740Z,56
2018-03-18T04:38:53.159Z,56
2018-03-18T04:39:55.570Z,56
2018-03-18T04:40:57.994Z,56
2018-03-18T04:42:00.414Z,56
2018-03-18T04:43:02.820Z,56
2018-03-18T04:44:05.230Z,56
2018-03-18T04:45:07.654Z,56
2018-03-18T04:46:10.065Z,56
2018-03-18T04:47:12.473Z,56
2018-03-18T04:48:14.880Z,56
2018-03-18T04:49:17.292Z,56
2018-03-18T04:50:19.706Z,55
2018-03-18T04:51:22.430Z,55
2018-03-18T04:52:24.831Z,55
2018-03-18T04:53:27.251Z,55
2018-03-18T04:54:29.675Z,55
2018-03-18T04:55:32.084Z,56
2018-03-18T04:56:34.510Z,56
2018-03-18T04:57:36.921Z,56
2018-03-18T04:58:39.341Z,56
2018-03-18T04:59:41.750Z,56
2018-03-18T05:00:44.170Z,56
2018-03-18T05:01:46.576Z,55
2018-03-18T05:02:49.312Z,55
2018-03-18T05:03:51.721Z,55
2018-03-18T05:04:54.416Z,55
2018-03-18T05:05:56.826Z,55
2018-03-18T05:06:59.236Z,55
2018-03-18T05:08:01.940Z,55
2018-03-18T05:09:04.358Z,55
2018-03-18T05:10:06.766Z,55
2018-03-18T05:11:09.172Z,55
2018-03-18T05:12:11.874Z,55
2018-03-18T05:13:14.573Z,55
2018-03-18T05:14:16.982Z,55
2018-03-18T05:15:19.390Z,55
2018-03-18T05:16:22.094Z,56
2018-03-18T05:17:24.488Z,56
2018-03-18T05:18:26.916Z,56
2018-03-18T05:19:29.617Z,56
2018-03-18T05:20:32.028Z,56
2018-03-18T05:21:34.437Z,55
2018-03-18T05:22:36.851Z,56
2018-03-18T05:23:39.542Z,56
2018-03-18T05:24:42.245Z,56
2018-03-18T05:25:44.653Z,56
2018-03-18T05:26:47.373Z,56
2018-03-18T05:27:49.810Z,56
2018-03-18T05:28:52.210Z,56
2018-03-18T05:29:54.630Z,56
2018-03-18T05:30:57.035Z,56
2018-03-18T05:31:59.723Z,56
2018-03-18T05:33:02.143Z,56
2018-03-18T05:34:04.565Z,56
2018-03-18T05:35:06.969Z,56
2018-03-18T05:36:09.673Z,56
2018-03-18T05:37:12.081Z,55
2018-03-18T05:38:14.783Z,56
2018-03-18T05:39:17.211Z,56
2018-03-18T05:40:19.627Z,56
2018-03-18T05:41:22.040Z,56
2018-03-18T05:42:24.448Z,56
2018-03-18T05:43:27.136Z,56
2018-03-18T05:44:29.852Z,56
2018-03-18T05:45:32.266Z,56
2018-03-18T05:46:34.682Z,56
2018-03-18T05:47:37.103Z,56
2018-03-18T05:48:39.518Z,56
2018-03-18T05:49:41.942Z,56
2018-03-18T05:50:44.358Z,56
2018-03-18T05:51:47.061Z,56
2018-03-18T05:52:49.479Z,56
2018-03-18T05:53:52.464Z,56
2018-03-18T05:54:54.874Z,56
2018-03-18T05:55:57.297Z,56
2018-03-18T05:56:59.999Z,56
2018-03-18T05:58:02.406Z,56
2018-03-18T05:59:04.823Z,56
2018-03-18T06:00:07.227Z,55
2018-03-18T06:01:09.640Z,55
2018-03-18T06:02:12.355Z,55
2018-03-18T06:03:15.051Z,55
2018-03-18T06:04:17.751Z,55
2018-03-18T06:05:20.171Z,55
2018-03-18T06:06:22.578Z,55
2018-03-18T06:07:24.990Z,56
2018-03-18T06:08:27.397Z,55
2018-03-18T06:09:29.806Z,55
2018-03-18T06:10:32.226Z,55
2018-03-18T06:11:34.639Z,55
2018-03-18T06:12:37.053Z,55
2018-03-18T06:13:39.782Z,55
2018-03-18T06:14:42.201Z,55
2018-03-18T06:15:44.607Z,54
2018-03-18T06:16:47.065Z,54
2018-03-18T06:17:49.444Z,55
2018-03-18T06:18:51.852Z,54
2018-03-18T06:19:54.265Z,54
2018-03-18T06:20:56.676Z,54
2018-03-18T06:21:59.083Z,54
2018-03-18T06:23:01.511Z,53
2018-03-18T06:24:03.915Z,54
2018-03-18T06:25:06.339Z,54
2018-03-18T06:26:08.750Z,54
2018-03-18T06:27:11.164Z,54
2018-03-18T06:28:13.577Z,54
2018-03-18T06:29:16.286Z,54
2018-03-18T06:30:18.705Z,54
2018-03-18T06:31:21.126Z,53
2018-03-18T06:32:23.539Z,54
2018-03-18T06:33:25.950Z,53
2018-03-18T06:34:28.654Z,53
2018-03-18T06:35:31.062Z,53
2018-03-18T06:36:33.464Z,53
2018-03-18T06:37:35.880Z,53
2018-03-18T06:38:38.294Z,53
2018-03-18T06:39:40.714Z,53
2018-03-18T06:40:43.122Z,53
2018-03-18T06:41:45.602Z,53
2018-03-18T06:42:47.958Z,53
2018-03-18T06:43:50.367Z,53
2018-03-18T06:44:52.850Z,53
2018-03-18T06:45:55.824Z,53
2018-03-18T06:46:58.636Z,53
2018-03-18T06:48:01.270Z,52
2018-03-18T06:49:04.185Z,52
2018-03-18T06:50:06.839Z,52
2018-03-18T06:51:09.588Z,52
2018-03-18T06:52:12.005Z,52
2018-03-18T06:53:14.413Z,52
2018-03-18T06:54:16.828Z,52
2018-03-18T06:55:19.525Z,52
2018-03-18T06:56:21.946Z,52
2018-03-18T06:57:24.367Z,52
2018-03-18T06:58:26.773Z,52
2018-03-18T06:59:29.195Z,52
2018-03-18T07:00:31.906Z,52
2018-03-18T07:01:34.387Z,51
2018-03-18T07:02:36.732Z,52
2018-03-18T07:03:39.439Z,52
2018-03-18T07:04:41.855Z,52
2018-03-18T07:05:44.278Z,52
2018-03-18T07:06:46.694Z,51
2018-03-18T07:07:49.093Z,51
2018-03-18T07:08:51.512Z,51
2018-03-18T07:09:54.212Z,51
2018-03-18T07:10:56.634Z,51
2018-03-18T07:11:59.052Z,51
2018-03-18T07:13:02.045Z,51
2018-03-18T07:14:04.456Z,51
2018-03-18T07:15:06.865Z,51
2018-03-18T07:16:09.280Z,51
2018-03-18T07:17:11.691Z,51
2018-03-18T07:18:14.105Z,50
2018-03-18T07:19:16.513Z,50
2018-03-18T07:20:18.924Z,50
2018-03-18T07:21:21.342Z,50
2018-03-18T07:22:23.752Z,50
2018-03-18T07:23:26.167Z,50
2018-03-18T07:24:28.592Z,50
2018-03-18T07:25:31.022Z,50
2018-03-18T07:26:33.421Z,50
2018-03-18T07:27:35.851Z,49
2018-03-18T07:28:38.265Z,49
2018-03-18T07:29:40.678Z,49
2018-03-18T07:30:43.092Z,49
2018-03-18T07:31:46.086Z,49
2018-03-18T07:32:48.499Z,49
2018-03-18T07:33:50.931Z,49
2018-03-18T07:34:53.336Z,49
2018-03-18T07:35:55.747Z,48
2018-03-18T07:36:58.161Z,48
2018-03-18T07:38:00.894Z,48
2018-03-18T07:39:03.291Z,48
2018-03-18T07:40:05.728Z,48
2018-03-18T07:41:08.135Z,48
2018-03-18T07:42:10.944Z,48
2018-03-18T07:43:13.279Z,48
2018-03-18T07:44:15.684Z,47
2018-03-18T07:45:18.384Z,48
2018-03-18T07:46:20.813Z,48
2018-03-18T07:47:23.224Z,47
2018-03-18T07:48:25.636Z,47
2018-03-18T07:49:28.061Z,47
2018-03-18T07:50:30.793Z,47
2018-03-18T07:51:33.210Z,47
2018-03-18T07:52:35.629Z,47
2018-03-18T07:53:38.335Z,47
2018-03-18T07:54:40.762Z,46
2018-03-18T07:55:43.178Z,45
2018-03-18T07:56:45.593Z,45
2018-03-18T07:57:48.012Z,45
2018-03-18T07:58:50.713Z,45
2018-03-18T07:59:53.427Z,45
2018-03-18T08:00:55.840Z,45
2018-03-18T08:01:58.286Z,45
2018-03-18T08:03:00.975Z,45
2018-03-18T08:04:03.392Z,45
2018-03-18T08:05:06.105Z,44
2018-03-18T08:06:08.814Z,44
2018-03-18T08:07:11.219Z,44
2018-03-18T08:08:13.949Z,43
2018-03-18T08:09:16.341Z,42
2018-03-18T08:10:19.053Z,42
2018-03-18T08:11:21.464Z,42
2018-03-18T08:12:23.880Z,42
2018-03-18T08:13:26.302Z,42
2018-03-18T08:14:28.722Z,43
2018-03-18T08:15:31.140Z,42
2018-03-18T08:16:33.566Z,43
2018-03-18T08:17:35.985Z,42
2018-03-18T08:18:38.413Z,42
2018-03-18T08:19:40.826Z,42
2018-03-18T08:20:43.242Z,42
2018-03-18T08:21:45.653Z,42
2018-03-18T08:22:48.391Z,41
2018-03-18T08:23:50.803Z,41
2018-03-18T08:24:53.501Z,41
2018-03-18T08:25:55.924Z,41
2018-03-18T08:26:58.336Z,41
2018-03-18T08:28:01.046Z,41
2018-03-18T08:29:03.480Z,41
2018-03-18T08:30:05.892Z,41
2018-03-18T08:31:08.328Z,40
2018-03-18T08:32:10.750Z,40
2018-03-18T08:33:13.175Z,40
2018-03-18T08:34:15.966Z,40
2018-03-18T08:35:18.347Z,40
2018-03-18T08:36:20.758Z,40
2018-03-18T08:37:23.189Z,40
2018-03-18T08:38:25.608Z,39
2018-03-18T08:39:28.320Z,39
2018-03-18T08:40:30.737Z,39
2018-03-18T08:41:33.166Z,38
2018-03-18T08:42:35.877Z,38
2018-03-18T08:43:38.305Z,38
2018-03-18T08:44:40.735Z,38
2018-03-18T08:45:43.155Z,37
2018-03-18T08:46:45.640Z,36
2018-03-18T08:47:48.010Z,37
2018-03-18T08:48:50.431Z,37
2018-03-18T08:49:52.843Z,37
2018-03-18T08:50:55.270Z,36
2018-03-18T08:51:57.701Z,36
2018-03-18T08:53:00.412Z,36
2018-03-18T08:54:02.840Z,36
2018-03-18T08:55:05.251Z,35
2018-03-18T08:56:07.683Z,35
2018-03-18T08:57:10.524Z,35
2018-03-18T08:58:12.958Z,36
2018-03-18T08:59:15.375Z,35
2018-03-18T09:00:17.806Z,35
2018-03-18T09:01:20.283Z,34
2018-03-18T09:02:22.697Z,35
2018-03-18T09:03:25.125Z,35
2018-03-18T09:04:27.541Z,35
2018-03-18T09:05:30.260Z,35
2018-03-18T09:06:33.170Z,35
2018-03-18T09:07:35.763Z,34
2018-03-18T09:08:38.438Z,33
2018-03-18T09:09:41.483Z,33
2018-03-18T09:10:44.450Z,33
2018-03-18T09:11:48.041Z,33
2018-03-18T09:12:52.232Z,33
2018-03-18T09:13:55.675Z,33
2018-03-18T09:14:59.033Z,33
2018-03-18T09:16:01.481Z,33
2018-03-18T09:17:03.900Z,33
2018-03-18T09:18:06.317Z,33
2018-03-18T09:19:09.042Z,33
2018-03-18T09:20:11.464Z,33
2018-03-18T09:21:14.195Z,33
2018-03-18T09:22:16.912Z,32
2018-03-18T09:23:19.334Z,32
2018-03-18T09:24:21.755Z,32
2018-03-18T09:25:24.179Z,32
2018-03-18T09:26:26.598Z,32
2018-03-18T09:27:29.022Z,32
2018-03-18T09:28:31.457Z,32
2018-03-18T09:29:33.881Z,32
2018-03-18T09:30:36.317Z,31
2018-03-18T09:31:38.749Z,31
2018-03-18T09:32:41.175Z,31
2018-03-18T09:33:43.602Z,31
2018-03-18T09:34:46.320Z,31
2018-03-18T09:35:48.751Z,32
2018-03-18T09:36:51.163Z,31
2018-03-18T09:37:53.600Z,31
2018-03-18T09:38:56.026Z,31
2018-03-18T09:39:58.448Z,31
2018-03-18T09:41:00.877Z,32
2018-03-18T09:42:03.309Z,32
2018-03-18T09:43:06.020Z,31
2018-03-18T09:44:08.745Z,31
2018-03-18T09:45:11.440Z,31
2018-03-18T09:46:13.870Z,31
2018-03-18T09:47:16.604Z,31
2018-03-18T09:48:19.314Z,31
2018-03-18T09:49:22.109Z,31
2018-03-18T09:50:24.529Z,31
2018-03-18T09:51:26.949Z,31
2018-03-18T09:52:29.394Z,31
2018-03-18T09:53:31.817Z,31
2018-03-18T09:54:34.229Z,31
2018-03-18T09:55:36.664Z,31
2018-03-18T09:56:39.086Z,30
2018-03-18T09:57:41.562Z,31
2018-03-18T09:58:44.242Z,30
2018-03-18T09:59:46.658Z,30
2018-03-18T10:00:49.091Z,30
2018-03-18T10:01:51.524Z,30
2018-03-18T10:02:53.940Z,30
2018-03-18T10:03:56.369Z,30
2018-03-18T10:04:58.791Z,30
2018-03-18T10:06:01.524Z,30
2018-03-18T10:07:04.244Z,30
2018-03-18T10:08:06.675Z,30
2018-03-18T10:09:09.397Z,30
2018-03-18T10:10:11.826Z,30
2018-03-18T10:11:14.270Z,30
2018-03-18T10:12:16.691Z,30
2018-03-18T10:13:19.109Z,30
2018-03-18T10:14:21.535Z,30
2018-03-18T10:15:24.163Z,31
2018-03-18T10:16:26.638Z,30
2018-03-18T10:17:29.033Z,30
2018-03-18T10:18:31.451Z,30
2018-03-18T10:19:34.478Z,30
2018-03-18T10:20:37.204Z,30
2018-03-18T10:21:39.916Z,30
2018-03-18T10:22:42.345Z,29
2018-03-18T10:23:44.774Z,29
2018-03-18T10:24:47.207Z,30
2018-03-18T10:25:49.646Z,29
2018-03-18T10:26:52.081Z,29
2018-03-18T10:27:54.500Z,30
2018-03-18T10:28:57.230Z,29
2018-03-18T10:30:00.248Z,29
2018-03-18T10:31:02.675Z,29
2018-03-18T10:32:05.410Z,29
2018-03-18T10:33:07.829Z,29
2018-03-18T10:34:10.257Z,29
2018-03-18T10:35:12.706Z,30
2018-03-18T10:36:15.425Z,29
2018-03-18T10:37:18.131Z,29
2018-03-18T10:38:20.563Z,29
2018-03-18T10:39:22.994Z,29
2018-03-18T10:40:25.729Z,29
2018-03-18T10:41:28.152Z,29
2018-03-18T10:42:30.590Z,29
2018-03-18T10:43:33.011Z,29
2018-03-18T10:44:35.449Z,29
2018-03-18T10:45:37.884Z,29
2018-03-18T10:46:40.316Z,29
2018-03-18T10:47:42.750Z,29
2018-03-18T10:48:45.573Z,28
2018-03-18T10:49:48.241Z,30
2018-03-18T10:50:50.674Z,28
2018-03-18T10:51:53.097Z,28
2018-03-18T10:52:55.546Z,28
2018-03-18T10:53:58.266Z,28
2018-03-18T10:55:00.988Z,29
2018-03-18T10:56:03.419Z,29
2018-03-18T10:57:05.851Z,28
2018-03-18T10:58:08.274Z,28
2018-03-18T10:59:11.013Z,28
2018-03-18T11:00:13.432Z,28
2018-03-18T11:01:15.860Z,27
2018-03-18T11:02:18.586Z,28
2018-03-18T11:03:21.019Z,28
2018-03-18T11:04:23.454Z,28
2018-03-18T11:05:25.891Z,28
2018-03-18T11:06:28.317Z,28
2018-03-18T11:07:30.745Z,28
2018-03-18T11:08:33.165Z,28
2018-03-18T11:09:35.606Z,28
2018-03-18T11:10:38.039Z,27
2018-03-18T11:11:40.774Z,28
2018-03-18T11:12:43.198Z,28
2018-03-18T11:13:45.641Z,27
2018-03-18T11:14:48.062Z,28
2018-03-18T11:15:50.505Z,28
2018-03-18T11:16:52.926Z,27
2018-03-18T11:17:55.647Z,28
2018-03-18T11:18:58.356Z,28
2018-03-18T11:20:01.127Z,28
2018-03-18T11:21:03.519Z,27
2018-03-18T11:22:05.944Z,27
2018-03-18T11:23:08.372Z,28
2018-03-18T11:24:10.806Z,28
2018-03-18T11:25:13.230Z,28
2018-03-18T11:26:15.672Z,28
2018-03-18T11:27:18.099Z,28
2018-03-18T11:28:20.529Z,28
2018-03-18T11:29:23.255Z,28
2018-03-18T11:30:25.693Z,27
2018-03-18T11:31:28.117Z,27
2018-03-18T11:32:30.544Z,27
2018-03-18T11:33:33.083Z,28
2018-03-18T11:34:35.805Z,27
2018-03-18T11:35:39.413Z,28
2018-03-18T11:36:43.184Z,28
2018-03-18T11:37:47.129Z,28
2018-03-18T11:38:51.761Z,27
2018-03-18T11:39:55.062Z,28
2018-03-18T11:40:57.496Z,29
2018-03-18T11:42:00.221Z,28
2018-03-18T11:43:02.652Z,29
2018-03-18T11:44:05.097Z,28
2018-03-18T11:45:07.520Z,28
2018-03-18T11:46:10.236Z,28
2018-03-18T11:47:12.672Z,28
2018-03-18T11:48:15.096Z,28
2018-03-18T11:49:17.815Z,28
2018-03-18T11:50:20.250Z,28
2018-03-18T11:51:22.666Z,28
2018-03-18T11:52:25.097Z,28
2018-03-18T11:53:27.533Z,28
2018-03-18T11:54:29.960Z,28
2018-03-18T11:55:32.385Z,28
2018-03-18T11:56:34.823Z,28
2018-03-18T11:57:37.251Z,28
2018-03-18T11:58:39.696Z,28
2018-03-18T11:59:42.129Z,28
2018-03-18T12:00:44.556Z,28
2018-03-18T12:01:46.989Z,29
2018-03-18T12:02:49.421Z,29
2018-03-18T12:03:52.138Z,29
2018-03-18T12:04:54.559Z,29
2018-03-18T12:05:57.005Z,30
2018-03-18T12:06:59.432Z,29
2018-03-18T12:08:01.858Z,29
2018-03-18T12:09:04.294Z,29
2018-03-18T12:10:07.039Z,28
2018-03-18T12:11:09.761Z,28
2018-03-18T12:12:12.200Z,28
2018-03-18T12:13:15.200Z,28
2018-03-18T12:14:17.636Z,28
2018-03-18T12:15:20.131Z,28
2018-03-18T12:16:22.498Z,28
2018-03-18T12:17:24.922Z,28
2018-03-18T12:18:27.347Z,28
2018-03-18T12:19:29.848Z,28
2018-03-18T12:20:32.211Z,29
2018-03-18T12:21:34.636Z,29
2018-03-18T12:22:37.068Z,29
2018-03-18T12:23:39.506Z,29
2018-03-18T12:24:42.221Z,30
2018-03-18T12:25:44.659Z,29
2018-03-18T12:26:47.085Z,29
2018-03-18T12:27:49.547Z,29
2018-03-18T12:28:52.262Z,29
2018-03-18T12:29:54.689Z,29
2018-03-18T12:30:57.708Z,29
2018-03-18T12:32:00.792Z,30
2018-03-18T12:33:03.788Z,29
2018-03-18T12:34:07.809Z,29
2018-03-18T12:35:10.994Z,29
2018-03-18T12:36:13.977Z,29
2018-03-18T12:37:16.418Z,28
2018-03-18T12:38:19.146Z,28
2018-03-18T12:39:21.570Z,28
2018-03-18T12:40:24.013Z,28
2018-03-18T12:41:26.446Z,28
2018-03-18T12:42:29.162Z,29
2018-03-18T12:43:31.603Z,29
2018-03-18T12:44:34.031Z,29
2018-03-18T12:45:36.456Z,29
2018-03-18T12:46:38.897Z,29
2018-03-18T12:47:41.319Z,30
2018-03-18T12:48:43.754Z,29
2018-03-18T12:49:46.193Z,29
2018-03-18T12:50:48.612Z,29
2018-03-18T12:51:51.048Z,28
2018-03-18T12:52:53.488Z,29
2018-03-18T12:53:55.923Z,29
2018-03-18T12:54:58.355Z,28
2018-03-18T12:56:00.789Z,28
2018-03-18T12:57:03.508Z,28
2018-03-18T12:58:05.958Z,28
2018-03-18T12:59:08.671Z,28
2018-03-18T13:00:11.094Z,28
2018-03-18T13:01:13.526Z,28
2018-03-18T13:02:15.970Z,29
2018-03-18T13:03:18.406Z,28
2018-03-18T13:04:21.121Z,29
2018-03-18T13:05:23.565Z,29
2018-03-18T13:06:26.005Z,30
2018-03-18T13:07:28.437Z,29
2018-03-18T13:08:30.867Z,29
2018-03-18T13:09:33.309Z,29
2018-03-18T13:10:35.742Z,29
2018-03-18T13:11:38.186Z,30
2018-03-18T13:12:40.618Z,30
2018-03-18T13:13:43.043Z,30
2018-03-18T13:14:45.490Z,29
2018-03-18T13:15:47.930Z,29
2018-03-18T13:16:50.418Z,29
2018-03-18T13:17:52.798Z,29
2018-03-18T13:18:55.525Z,29
2018-03-18T13:19:57.964Z,29
2018-03-18T13:21:00.406Z,29
2018-03-18T13:22:02.829Z,30
2018-03-18T13:23:05.264Z,29
2018-03-18T13:24:08.028Z,29
2018-03-18T13:25:10.462Z,29
2018-03-18T13:26:12.892Z,29
2018-03-18T13:27:15.327Z,29
2018-03-18T13:28:17.757Z,29
2018-03-18T13:29:20.197Z,29
2018-03-18T13:30:22.642Z,29
2018-03-18T13:31:25.060Z,29
2018-03-18T13:32:27.500Z,29
2018-03-18T13:33:30.239Z,30
2018-03-18T13:34:32.676Z,29
2018-03-18T13:35:35.136Z,30
2018-03-18T13:36:37.544Z,30
2018-03-18T13:37:40.274Z,29
2018-03-18T13:38:42.979Z,30
2018-03-18T13:39:45.421Z,30
2018-03-18T13:40:47.856Z,30
2018-03-18T13:41:50.570Z,30
2018-03-18T13:42:52.996Z,30
2018-03-18T13:43:55.433Z,30
2018-03-18T13:44:57.868Z,30
2018-03-18T13:46:00.315Z,30
2018-03-18T13:47:02.753Z,30
2018-03-18T13:48:05.176Z,30
2018-03-18T13:49:07.622Z,30
2018-03-18T13:50:10.051Z,30
2018-03-18T13:51:12.490Z,30
2018-03-18T13:52:14.928Z,30
2018-03-18T13:53:17.358Z,30
2018-03-18T13:54:19.785Z,30
2018-03-18T13:55:22.521Z,30
2018-03-18T13:56:24.940Z,30
2018-03-18T13:57:27.387Z,30
2018-03-18T13:58:29.814Z,30
2018-03-18T13:59:32.255Z,29
2018-03-18T14:00:34.682Z,30
2018-03-18T14:01:37.116Z,30
2018-03-18T14:02:39.544Z,30
2018-03-18T14:03:41.990Z,30
2018-03-18T14:04:44.421Z,30
2018-03-18T14:05:46.849Z,30
2018-03-18T14:06:49.570Z,30
2018-03-18T14:07:52.284Z,30
2018-03-18T14:08:54.708Z,30
2018-03-18T14:09:57.155Z,30
2018-03-18T14:10:59.584Z,30
2018-03-18T14:12:02.028Z,30
2018-03-18T14:13:04.757Z,30
2018-03-18T14:14:07.189Z,30
2018-03-18T14:15:09.626Z,30
2018-03-18T14:16:12.053Z,30
2018-03-18T14:17:14.486Z,29
2018-03-18T14:18:16.912Z,29
2018-03-18T14:19:19.342Z,29
2018-03-18T14:20:21.778Z,29
2018-03-18T14:21:24.228Z,29
2018-03-18T14:22:26.652Z,29
2018-03-18T14:23:29.078Z,29
2018-03-18T14:24:31.505Z,30
2018-03-18T14:25:34.224Z,30
2018-03-18T14:26:36.662Z,29
2018-03-18T14:27:39.099Z,29
2018-03-18T14:28:41.517Z,30
2018-03-18T14:29:43.958Z,30
2018-03-18T14:30:46.391Z,30
2018-03-18T14:31:48.818Z,30
2018-03-18T14:32:51.542Z,30
2018-03-18T14:33:53.977Z,29
2018-03-18T14:34:56.691Z,29
2018-03-18T14:35:59.117Z,29
2018-03-18T14:37:01.551Z,29
2018-03-18T14:38:04.273Z,29
2018-03-18T14:39:07.318Z,29
2018-03-18T14:40:09.742Z,29
2018-03-18T14:41:12.465Z,29
2018-03-18T14:42:14.900Z,29
2018-03-18T14:43:17.347Z,29
2018-03-18T14:44:19.775Z,29
2018-03-18T14:45:22.204Z,29
2018-03-18T14:46:24.635Z,29
2018-03-18T14:47:27.081Z,29
2018-03-18T14:48:29.510Z,29
2018-03-18T14:49:31.951Z,29
2018-03-18T14:50:35.044Z,29
2018-03-18T14:51:38.592Z,29